Time;durP1;ratioP1;P1;durP2;ratioP2;P2;SDS_P1;SDS_P2;PMS_P1;PMS_P2;Temp;Humidity;BMP_temperature;BMP_pressure;BME280_temperature;BME280_humidity;BME280_pressure;Samples;Min_cycle;Max_cycle;Signal;HPM_P1;HPM_P2
2021/07/15 00:02:09;;;;;;;;;;;14.80;99.90;;;;;;4995103;28;20388;-89
2021/07/15 00:04:34;;;;;;;;;;;14.80;99.90;;;;;;4995521;28;19909;-88
2021/07/15 00:07:00;;;;;;;;;;;14.80;99.90;;;;;;4995113;28;19924;-88
2021/07/15 00:09:25;;;;;;;;;;;14.80;99.90;;;;;;5012454;28;20392;-88
2021/07/15 00:11:51;;;;;;;;;;;14.90;99.90;;;;;;4995243;28;19909;-88
2021/07/15 00:14:20;;;;;;;;;;;14.90;99.90;;;;;;4995897;28;19909;-88
2021/07/15 00:16:51;;;;;;;;;;;14.90;99.90;;;;;;5013412;28;19913;-89
2021/07/15 00:19:18;;;;;;;;;;;14.90;99.90;;;;;;4996084;28;19909;-89
2021/07/15 00:21:44;;;;;;;;;;;14.80;99.90;;;;;;5013466;28;19909;-89
2021/07/15 00:24:10;;;;;;;;;;;14.80;99.90;;;;;;4995803;28;19920;-88
2021/07/15 00:26:36;;;;;;;;;;;14.80;99.90;;;;;;4995504;28;19959;-88
2021/07/15 00:29:02;;;;;;;;;;;14.80;99.90;;;;;;4995345;28;19948;-88
2021/07/15 00:31:27;;;;;;;;;;;14.80;99.90;;;;;;4995354;28;19910;-88
2021/07/15 00:33:53;;;;;;;;;;;14.80;99.90;;;;;;5013256;28;19910;-88
2021/07/15 00:36:18;;;;;;;;;;;14.80;99.90;;;;;;5013114;28;19914;-89
2021/07/15 00:38:44;;;;;;;;;;;14.80;99.90;;;;;;4995540;28;19910;-88
2021/07/15 00:41:09;;;;;;;;;;;14.80;99.90;;;;;;4995431;28;19914;-88
2021/07/15 00:43:35;;;;;;;;;;;14.80;99.90;;;;;;4995659;28;20025;-88
2021/07/15 00:46:00;;;;;;;;;;;14.70;99.90;;;;;;4999506;28;20361;-88
2021/07/15 00:48:26;;;;;;;;;;;14.70;99.90;;;;;;5017077;28;19918;-88
2021/07/15 00:50:52;;;;;;;;;;;14.70;99.90;;;;;;4999756;28;19917;-89
2021/07/15 00:53:18;;;;;;;;;;;14.60;99.90;;;;;;5017194;28;20538;-89
2021/07/15 00:55:44;;;;;;;;;;;14.60;99.90;;;;;;4999478;28;19929;-88
2021/07/15 00:58:11;;;;;;;;;;;14.60;99.90;;;;;;4999551;28;20372;-89
2021/07/15 01:00:38;;;;;;;;;;;14.60;99.90;;;;;;4999664;28;20360;-89
2021/07/15 01:03:04;;;;;;;;;;;14.60;99.90;;;;;;4999521;28;19959;-88
2021/07/15 01:05:34;;;;;;;;;;;14.60;99.90;;;;;;4999341;28;19960;-88
2021/07/15 01:08:00;;;;;;;;;;;14.60;99.90;;;;;;4999085;28;19917;-89
2021/07/15 01:10:27;;;;;;;;;;;14.60;99.90;;;;;;4999196;28;20403;-88
2021/07/15 01:13:01;;;;;;;;;;;14.50;99.90;;;;;;5016871;28;19916;-88
2021/07/15 01:15:32;;;;;;;;;;;14.50;99.90;;;;;;4999497;28;20000;-89
2021/07/15 01:18:02;;;;;;;;;;;14.50;99.90;;;;;;4999508;28;19909;-89
2021/07/15 01:20:47;;;;;;;;;;;14.60;99.90;;;;;;5017956;28;19917;-89
2021/07/15 01:23:31;;;;;;;;;;;14.50;99.90;;;;;;5000090;28;19984;-88
2021/07/15 01:26:09;;;;;;;;;;;14.50;99.90;;;;;;5016642;28;19909;-89
2021/07/15 01:28:53;;;;;;;;;;;14.50;99.90;;;;;;4998900;28;19913;-89
2021/07/15 01:31:19;;;;;;;;;;;14.50;99.90;;;;;;4998739;28;19910;-89
2021/07/15 01:33:46;;;;;;;;;;;14.40;99.90;;;;;;4998980;28;19914;-89
2021/07/15 01:36:13;;;;;;;;;;;14.40;99.90;;;;;;4998947;28;19909;-89
2021/07/15 01:38:43;;;;;;;;;;;14.30;99.90;;;;;;4998757;28;19909;-89
2021/07/15 01:41:13;;;;;;;;;;;14.30;99.90;;;;;;4991588;28;19909;-88
2021/07/15 01:43:40;;;;;;;;;;;14.30;99.90;;;;;;4998888;28;19910;-88
2021/07/15 01:46:06;;;;;;;;;;;14.40;99.90;;;;;;4998711;28;20007;-89
2021/07/15 01:48:32;;;;;;;;;;;14.30;99.90;;;;;;5016219;28;20439;-89
2021/07/15 01:50:57;;;;;;;;;;;14.30;99.90;;;;;;4998909;28;19972;-89
2021/07/15 01:53:23;;;;;;;;;;;14.20;99.90;;;;;;4998596;28;19910;-89
2021/07/15 01:55:49;;;;;;;;;;;14.20;99.90;;;;;;5015503;28;19909;-89
2021/07/15 01:58:15;;;;;;;;;;;14.10;99.90;;;;;;4998261;28;20320;-89
2021/07/15 02:00:42;;;;;;;;;;;14.10;99.90;;;;;;5016134;28;19910;-88
2021/07/15 02:03:09;;;;;;;;;;;14.10;99.90;;;;;;4998346;28;19952;-89
2021/07/15 02:05:36;;;;;;;;;;;14.00;99.90;;;;;;4998235;28;19916;-89
2021/07/15 02:08:03;;;;;;;;;;;14.00;99.90;;;;;;4997959;28;19913;-89
2021/07/15 02:10:30;;;;;;;;;;;14.00;99.90;;;;;;4997926;28;20327;-89
2021/07/15 02:12:56;;;;;;;;;;;14.10;99.90;;;;;;4997901;28;20368;-88
2021/07/15 02:15:23;;;;;;;;;;;14.00;99.90;;;;;;4998146;28;20456;-87
2021/07/15 02:17:48;;;;;;;;;;;14.10;99.90;;;;;;4997901;28;19979;-89
2021/07/15 02:20:16;;;;;;;;;;;14.10;99.90;;;;;;4998210;28;20361;-88
2021/07/15 02:22:43;;;;;;;;;;;14.00;99.90;;;;;;4998156;28;19917;-89
2021/07/15 02:25:09;;;;;;;;;;;14.00;99.90;;;;;;5015507;28;19960;-88
2021/07/15 02:27:35;;;;;;;;;;;14.00;99.90;;;;;;4997961;28;20376;-88
2021/07/15 02:30:01;;;;;;;;;;;14.00;99.90;;;;;;4997881;28;19959;-88
2021/07/15 02:32:26;;;;;;;;;;;14.00;99.90;;;;;;5015508;28;20008;-88
2021/07/15 02:34:53;;;;;;;;;;;13.90;99.90;;;;;;4997875;28;20381;-89
2021/07/15 02:37:27;;;;;;;;;;;13.90;99.90;;;;;;4997636;28;19910;-88
2021/07/15 02:39:53;;;;;;;;;;;13.90;99.90;;;;;;4997620;28;19910;-88
2021/07/15 02:42:18;;;;;;;;;;;13.90;99.90;;;;;;4997653;28;19909;-88
2021/07/15 02:44:44;;;;;;;;;;;13.90;99.90;;;;;;4997981;28;19909;-89
2021/07/15 02:47:10;;;;;;;;;;;13.90;99.90;;;;;;4997274;28;19913;-89
2021/07/15 02:49:39;;;;;;;;;;;13.90;99.90;;;;;;4997301;28;20273;-88
2021/07/15 02:52:05;;;;;;;;;;;13.90;99.90;;;;;;4997419;28;19910;-88
2021/07/15 02:54:31;;;;;;;;;;;13.90;99.90;;;;;;4997127;28;19910;-89
2021/07/15 02:57:03;;;;;;;;;;;13.90;99.90;;;;;;4997166;28;19918;-88
2021/07/15 02:59:37;;;;;;;;;;;14.00;99.90;;;;;;4997351;28;19910;-89
2021/07/15 03:02:22;;;;;;;;;;;14.00;99.90;;;;;;4997137;28;19920;-88
2021/07/15 03:04:49;;;;;;;;;;;14.10;99.90;;;;;;5014751;28;20387;-88
2021/07/15 03:07:15;;;;;;;;;;;14.10;99.90;;;;;;4995996;28;20361;-87
2021/07/15 03:09:41;;;;;;;;;;;14.10;99.90;;;;;;4996787;28;19960;-89
2021/07/15 03:12:10;;;;;;;;;;;14.20;99.90;;;;;;4996792;28;19910;-87
2021/07/15 03:14:38;;;;;;;;;;;14.20;99.90;;;;;;4996782;28;19976;-88
2021/07/15 03:17:05;;;;;;;;;;;14.30;99.90;;;;;;4996494;28;19917;-87
2021/07/15 03:19:32;;;;;;;;;;;14.30;99.90;;;;;;5014063;28;19910;-88
2021/07/15 03:22:03;;;;;;;;;;;14.40;99.90;;;;;;4996634;28;19910;-87
2021/07/15 03:24:30;;;;;;;;;;;14.40;99.90;;;;;;5014075;28;19932;-87
2021/07/15 03:26:56;;;;;;;;;;;14.40;99.90;;;;;;5014021;28;19910;-87
2021/07/15 03:29:22;;;;;;;;;;;14.30;99.90;;;;;;4996409;28;19928;-87
2021/07/15 03:31:47;;;;;;;;;;;14.30;99.90;;;;;;4996129;28;20305;-87
2021/07/15 03:34:13;;;;;;;;;;;14.30;99.90;;;;;;4996451;28;20505;-87
2021/07/15 03:36:40;;;;;;;;;;;14.30;99.90;;;;;;4996100;28;19909;-87
2021/07/15 03:39:06;;;;;;;;;;;14.30;99.90;;;;;;5013733;28;19910;-88
2021/07/15 03:41:32;;;;;;;;;;;14.20;99.90;;;;;;4996102;28;19959;-87
2021/07/15 03:43:58;;;;;;;;;;;14.20;99.90;;;;;;4996272;28;19964;-88
2021/07/15 03:46:26;;;;;;;;;;;14.20;99.90;;;;;;4995959;28;19909;-87
2021/07/15 03:48:51;;;;;;;;;;;14.20;99.90;;;;;;4995863;28;20285;-88
2021/07/15 03:51:18;;;;;;;;;;;14.20;99.90;;;;;;4996168;28;19920;-88
2021/07/15 03:53:45;;;;;;;;;;;14.30;99.90;;;;;;5013549;28;19910;-87
2021/07/15 03:56:12;;;;;;;;;;;14.40;99.90;;;;;;4995801;28;19947;-87
2021/07/15 03:58:38;;;;;;;;;;;14.40;99.90;;;;;;4995800;28;19910;-87
2021/07/15 04:01:04;;;;;;;;;;;14.40;99.90;;;;;;4995916;28;19917;-88
2021/07/15 04:03:32;;;;;;;;;;;14.40;99.90;;;;;;4995985;28;19910;-87
2021/07/15 04:05:59;;;;;;;;;;;14.50;99.90;;;;;;4995897;28;20300;-88
2021/07/15 04:08:26;;;;;;;;;;;14.50;99.90;;;;;;4995443;28;19956;-88
2021/07/15 04:10:53;;;;;;;;;;;14.60;99.90;;;;;;4995522;28;19964;-88
2021/07/15 04:13:19;;;;;;;;;;;14.50;99.90;;;;;;4995932;28;19964;-88
2021/07/15 04:15:50;;;;;;;;;;;14.60;99.90;;;;;;4995657;28;19977;-89
2021/07/15 04:18:17;;;;;;;;;;;14.60;99.90;;;;;;5012648;28;19916;-87
2021/07/15 04:20:43;;;;;;;;;;;14.60;99.90;;;;;;5013210;28;20391;-87
2021/07/15 04:23:09;;;;;;;;;;;14.70;99.90;;;;;;4995280;28;20430;-87
2021/07/15 04:25:35;;;;;;;;;;;14.60;99.90;;;;;;4995588;28;19913;-88
2021/07/15 04:28:02;;;;;;;;;;;14.60;99.90;;;;;;5012755;28;19918;-88
2021/07/15 04:30:28;;;;;;;;;;;14.70;99.90;;;;;;4995404;28;19916;-88
2021/07/15 04:32:57;;;;;;;;;;;14.70;99.90;;;;;;4995276;28;20439;-88
2021/07/15 04:35:24;;;;;;;;;;;14.70;99.90;;;;;;4995517;28;19956;-88
2021/07/15 04:37:50;;;;;;;;;;;14.70;99.90;;;;;;4995339;28;19917;-87
2021/07/15 04:40:16;;;;;;;;;;;14.70;99.90;;;;;;4995210;28;19910;-88
2021/07/15 04:42:43;;;;;;;;;;;14.70;99.90;;;;;;5013159;28;19916;-87
2021/07/15 04:45:10;;;;;;;;;;;14.80;99.90;;;;;;5012877;28;19909;-88
2021/07/15 04:47:38;;;;;;;;;;;14.80;99.90;;;;;;5012629;28;19913;-88
2021/07/15 04:50:04;;;;;;;;;;;15.00;99.90;;;;;;4995085;28;19917;-87
2021/07/15 04:52:29;;;;;;;;;;;15.00;99.90;;;;;;4995288;28;19918;-87
2021/07/15 04:54:56;;;;;;;;;;;14.90;99.90;;;;;;4995117;28;20562;-88
2021/07/15 04:57:22;;;;;;;;;;;14.90;99.90;;;;;;4994926;28;20383;-88
2021/07/15 04:59:48;;;;;;;;;;;15.00;99.90;;;;;;4995181;28;19913;-88
2021/07/15 05:02:13;;;;;;;;;;;15.00;99.90;;;;;;5012735;28;19909;-88
2021/07/15 05:04:39;;;;;;;;;;;15.00;99.90;;;;;;4995088;28;19916;-88
2021/07/15 05:07:05;;;;;;;;;;;15.10;99.90;;;;;;5012473;28;19910;-88
2021/07/15 05:09:30;;;;;;;;;;;15.10;99.90;;;;;;5012361;28;19956;-88
2021/07/15 05:11:56;;;;;;;;;;;15.10;99.90;;;;;;5012483;28;19996;-88
2021/07/15 05:14:21;;;;;;;;;;;15.00;99.90;;;;;;4994858;28;19909;-88
2021/07/15 05:16:47;;;;;;;;;;;15.10;99.90;;;;;;4994831;28;19916;-88
2021/07/15 05:19:12;;;;;;;;;;;15.10;99.90;;;;;;5012481;28;19910;-87
2021/07/15 05:21:38;;;;;;;;;;;15.20;99.90;;;;;;5012476;28;19960;-87
2021/07/15 05:24:04;;;;;;;;;;;15.30;99.90;;;;;;5012545;28;19917;-88
2021/07/15 05:26:29;;;;;;;;;;;15.30;99.90;;;;;;4994618;28;20369;-88
2021/07/15 05:28:57;;;;;;;;;;;15.30;99.90;;;;;;4994644;28;19983;-87
2021/07/15 05:31:22;;;;;;;;;;;15.40;99.90;;;;;;5014855;28;19917;-88
2021/07/15 05:33:48;;;;;;;;;;;15.50;99.90;;;;;;5016193;28;19913;-88
2021/07/15 05:36:13;;;;;;;;;;;15.60;99.90;;;;;;4998453;28;19909;-88
2021/07/15 05:38:41;;;;;;;;;;;15.70;99.90;;;;;;4998383;28;19909;-88
2021/07/15 05:41:07;;;;;;;;;;;15.70;99.90;;;;;;5015828;28;19925;-88
2021/07/15 05:43:33;;;;;;;;;;;15.80;99.90;;;;;;4998636;28;20004;-86
2021/07/15 05:45:58;;;;;;;;;;;15.90;99.90;;;;;;4998371;28;19963;-87
2021/07/15 05:48:24;;;;;;;;;;;15.90;99.90;;;;;;4997940;28;20280;-87
2021/07/15 05:50:49;;;;;;;;;;;16.00;99.90;;;;;;5015734;28;19937;-88
2021/07/15 05:53:15;;;;;;;;;;;16.00;99.90;;;;;;4998254;28;20340;-88
2021/07/15 05:55:40;;;;;;;;;;;16.10;99.90;;;;;;4998071;28;19913;-87
2021/07/15 05:58:08;;;;;;;;;;;16.20;99.90;;;;;;4997697;28;20288;-87
2021/07/15 06:00:34;;;;;;;;;;;16.20;99.90;;;;;;4998052;28;19916;-87
2021/07/15 06:03:00;;;;;;;;;;;16.30;99.90;;;;;;4998215;28;19914;-87
2021/07/15 06:05:28;;;;;;;;;;;16.20;99.90;;;;;;4997873;28;19952;-88
2021/07/15 06:07:53;;;;;;;;;;;16.20;99.90;;;;;;5015237;28;19913;-88
2021/07/15 06:10:19;;;;;;;;;;;16.30;99.90;;;;;;5015177;28;19959;-88
2021/07/15 06:12:44;;;;;;;;;;;16.30;99.90;;;;;;4997801;28;19920;-88
2021/07/15 06:15:10;;;;;;;;;;;16.40;99.90;;;;;;4997628;28;19999;-88
2021/07/15 06:17:35;;;;;;;;;;;16.40;99.90;;;;;;4997599;28;19909;-88
2021/07/15 06:20:02;;;;;;;;;;;16.50;99.90;;;;;;5015217;28;19981;-86
2021/07/15 06:22:28;;;;;;;;;;;16.70;99.90;;;;;;4997993;28;20391;-89
2021/07/15 06:24:53;;;;;;;;;;;16.70;99.90;;;;;;4997669;28;19914;-89
2021/07/15 06:27:19;;;;;;;;;;;16.70;99.90;;;;;;4997321;28;19932;-88
2021/07/15 06:29:44;;;;;;;;;;;16.70;99.90;;;;;;4997541;28;19917;-87
2021/07/15 06:32:10;;;;;;;;;;;16.80;99.90;;;;;;4997348;28;19967;-87
2021/07/15 06:34:36;;;;;;;;;;;16.90;99.90;;;;;;4997671;28;19909;-87
2021/07/15 06:37:02;;;;;;;;;;;16.90;99.90;;;;;;4996936;28;20376;-87
2021/07/15 06:39:28;;;;;;;;;;;16.80;99.90;;;;;;4997557;28;19909;-87
2021/07/15 06:41:53;;;;;;;;;;;16.80;99.90;;;;;;5013093;28;19936;-86
2021/07/15 06:44:21;;;;;;;;;;;16.70;99.90;;;;;;5013323;28;20282;-86
2021/07/15 06:46:46;;;;;;;;;;;16.70;99.90;;;;;;5002182;28;19909;-88
2021/07/15 06:49:12;;;;;;;;;;;16.80;99.90;;;;;;5013451;28;19913;-87
2021/07/15 06:51:37;;;;;;;;;;;16.80;99.90;;;;;;4996831;28;20336;-86
2021/07/15 06:54:03;;;;;;;;;;;17.10;99.90;;;;;;5011469;28;19964;-86
2021/07/15 06:56:28;;;;;;;;;;;17.60;99.90;;;;;;5012007;28;19910;-87
2021/07/15 06:58:54;;;;;;;;;;;18.00;99.90;;;;;;5013058;28;20335;-86
2021/07/15 07:01:20;;;;;;;;;;;18.30;99.90;;;;;;4998406;28;19917;-86
2021/07/15 07:03:45;;;;;;;;;;;18.70;99.90;;;;;;4995355;28;19959;-86
2021/07/15 07:06:11;;;;;;;;;;;18.90;99.90;;;;;;5013456;28;20276;-87
2021/07/15 07:08:36;;;;;;;;;;;19.00;99.90;;;;;;4998488;28;20415;-87
2021/07/15 07:11:02;;;;;;;;;;;19.00;99.90;;;;;;5014437;28;19909;-87
2021/07/15 07:13:27;;;;;;;;;;;19.00;99.90;;;;;;4996207;28;20471;-86
2021/07/15 07:15:52;;;;;;;;;;;19.00;99.90;;;;;;5013157;28;19916;-86
2021/07/15 07:18:20;;;;;;;;;;;19.00;99.90;;;;;;5005232;28;20272;-86
2021/07/15 07:20:45;;;;;;;;;;;19.10;99.90;;;;;;4996253;28;20372;-86
2021/07/15 07:23:13;;;;;;;;;;;19.20;99.90;;;;;;5007706;28;19916;-86
2021/07/15 07:25:39;;;;;;;;;;;19.20;99.90;;;;;;5012994;28;19968;-86
2021/07/15 07:28:05;;;;;;;;;;;19.30;99.90;;;;;;5007425;28;19913;-86
2021/07/15 07:30:30;;;;;;;;;;;19.40;99.90;;;;;;4995190;28;20372;-86
2021/07/15 07:32:56;;;;;;;;;;;19.30;99.90;;;;;;4995113;28;20016;-87
2021/07/15 07:35:21;;;;;;;;;;;19.30;99.90;;;;;;4996248;28;19909;-86
2021/07/15 07:37:47;;;;;;;;;;;19.20;99.90;;;;;;5013306;28;19910;-86
2021/07/15 07:40:14;;;;;;;;;;;19.20;99.90;;;;;;5013419;28;20392;-86
2021/07/15 07:42:39;;;;;;;;;;;19.20;99.90;;;;;;5013589;28;20391;-86
2021/07/15 07:45:06;;;;;;;;;;;19.20;99.90;;;;;;5000775;28;19909;-87
2021/07/15 07:47:31;;;;;;;;;;;19.20;99.90;;;;;;5012917;28;19917;-87
2021/07/15 07:49:57;;;;;;;;;;;19.20;99.90;;;;;;5008810;28;19910;-88
2021/07/15 07:52:22;;;;;;;;;;;19.20;99.90;;;;;;4995327;28;19914;-86
2021/07/15 07:54:48;;;;;;;;;;;19.30;99.90;;;;;;5007351;28;20296;-88
2021/07/15 07:57:13;;;;;;;;;;;19.50;99.90;;;;;;5011805;28;20357;-87
2021/07/15 07:59:38;;;;;;;;;;;19.60;99.90;;;;;;4996833;28;19910;-87
2021/07/15 08:02:04;;;;;;;;;;;19.60;99.90;;;;;;4998367;28;19910;-88
2021/07/15 08:04:30;;;;;;;;;;;19.60;99.90;;;;;;4996579;28;20375;-88
2021/07/15 08:06:55;;;;;;;;;;;19.60;99.90;;;;;;4995203;28;19963;-87
2021/07/15 08:09:25;;;;;;;;;;;19.60;99.90;;;;;;5013585;28;19960;-87
2021/07/15 08:11:54;;;;;;;;;;;19.60;99.90;;;;;;5012101;28;20486;-87
2021/07/15 08:14:21;;;;;;;;;;;19.70;99.90;;;;;;5012266;28;19910;-88
2021/07/15 08:16:47;;;;;;;;;;;19.60;99.90;;;;;;4995157;28;19953;-87
2021/07/15 08:19:12;;;;;;;;;;;19.70;99.90;;;;;;5006631;28;19963;-86
2021/07/15 08:21:38;;;;;;;;;;;19.80;99.90;;;;;;4995812;28;19909;-86
2021/07/15 08:24:03;;;;;;;;;;;19.90;99.90;;;;;;5011229;28;19916;-87
2021/07/15 08:26:29;;;;;;;;;;;19.90;99.90;;;;;;5011748;28;20434;-87
2021/07/15 08:28:54;;;;;;;;;;;19.80;99.90;;;;;;5012183;28;19917;-87
2021/07/15 08:31:22;;;;;;;;;;;19.70;99.90;;;;;;4996676;28;19913;-87
2021/07/15 08:33:47;;;;;;;;;;;19.60;99.90;;;;;;5012150;28;20019;-86
2021/07/15 08:36:13;;;;;;;;;;;19.60;99.90;;;;;;4996192;28;20399;-86
2021/07/15 08:38:40;;;;;;;;;;;19.40;99.90;;;;;;4994600;28;19909;-87
2021/07/15 08:41:06;;;;;;;;;;;19.10;99.90;;;;;;4994788;28;19985;-87
2021/07/15 08:43:33;;;;;;;;;;;18.80;99.90;;;;;;5012484;28;20398;-86
2021/07/15 08:45:59;;;;;;;;;;;18.60;99.90;;;;;;5002095;28;20015;-86
2021/07/15 08:48:26;;;;;;;;;;;18.30;99.90;;;;;;4996860;28;19920;-86
2021/07/15 08:50:55;;;;;;;;;;;18.00;99.90;;;;;;4995549;28;19909;-87
2021/07/15 08:53:23;;;;;;;;;;;17.80;99.90;;;;;;5012828;28;19914;-87
2021/07/15 08:58:33;;;;;;;;;;;17.60;99.90;;;;;;5009805;28;19935;-88
2021/07/15 09:00:59;;;;;;;;;;;17.60;99.90;;;;;;5010264;28;19996;-86
2021/07/15 09:03:25;;;;;;;;;;;17.70;99.90;;;;;;4995396;28;19909;-86
2021/07/15 09:05:50;;;;;;;;;;;17.80;99.90;;;;;;4997117;28;19976;-87
2021/07/15 09:08:16;;;;;;;;;;;17.90;99.90;;;;;;4998994;28;20365;-87
2021/07/15 09:10:41;;;;;;;;;;;18.20;99.90;;;;;;5007028;28;19925;-88
2021/07/15 09:13:07;;;;;;;;;;;18.50;99.90;;;;;;4998767;28;20335;-87
2021/07/15 09:15:32;;;;;;;;;;;18.80;99.90;;;;;;4998829;28;19909;-86
2021/07/15 09:17:58;;;;;;;;;;;19.20;99.90;;;;;;5016205;28;19909;-87
2021/07/15 09:20:24;;;;;;;;;;;19.40;99.90;;;;;;5015659;28;19917;-86
2021/07/15 09:23:03;;;;;;;;;;;19.50;99.90;;;;;;4999043;28;19956;-86
2021/07/15 09:25:48;;;;;;;;;;;19.70;99.90;;;;;;4994304;28;19924;-87
2021/07/15 09:28:14;;;;;;;;;;;19.90;99.90;;;;;;4995510;28;19913;-86
2021/07/15 09:30:41;;;;;;;;;;;20.20;99.90;;;;;;4996181;28;19909;-86
2021/07/15 09:33:08;;;;;;;;;;;20.30;99.90;;;;;;5015628;28;19918;-86
2021/07/15 09:35:37;;;;;;;;;;;20.10;99.90;;;;;;4998368;28;19967;-87
2021/07/15 09:38:07;;;;;;;;;;;20.30;99.90;;;;;;5008248;28;20008;-87
2021/07/15 09:40:43;;;;;;;;;;;20.50;99.90;;;;;;4997063;28;19917;-86
2021/07/15 09:43:13;;;;;;;;;;;20.80;99.90;;;;;;5011886;28;19909;-87
2021/07/15 09:45:39;;;;;;;;;;;21.00;99.90;;;;;;5015255;28;19910;-87
2021/07/15 09:48:37;;;;;;;;;;;21.30;99.90;;;;;;5015265;28;20367;-87
2021/07/15 09:51:02;;;;;;;;;;;21.40;99.90;;;;;;4965447;28;20008;-86
2021/07/15 09:53:33;;;;;;;;;;;21.40;99.90;;;;;;5013307;28;19953;-87
2021/07/15 09:55:59;;;;;;;;;;;21.80;99.90;;;;;;5014706;28;19996;-88
2021/07/15 09:58:24;;;;;;;;;;;21.90;99.90;;;;;;4996706;28;20478;-86
2021/07/15 10:00:50;;;;;;;;;;;22.00;99.90;;;;;;5014821;28;19913;-87
2021/07/15 10:03:17;;;;;;;;;;;21.90;99.90;;;;;;5000356;28;19910;-88
2021/07/15 10:06:08;;;;;;;;;;;21.60;99.90;;;;;;4998339;28;20371;-87
2021/07/15 10:08:35;;;;;;;;;;;21.00;99.90;;;;;;5010203;28;20367;-88
2021/07/15 10:11:26;;;;;;;;;;;20.30;99.90;;;;;;4997039;28;20032;-88
2021/07/15 10:14:02;;;;;;;;;;;19.90;99.90;;;;;;4998309;28;19910;-88
2021/07/15 10:16:29;;;;;;;;;;;19.60;99.90;;;;;;4997802;28;19910;-89
2021/07/15 10:18:54;;;;;;;;;;;19.60;99.90;;;;;;4998207;28;19910;-88
2021/07/15 10:21:25;;;;;;;;;;;19.70;99.90;;;;;;4997943;28;20426;-86
2021/07/15 10:23:51;;;;;;;;;;;20.00;99.90;;;;;;4997889;28;20507;-88
2021/07/15 10:26:17;;;;;;;;;;;20.20;99.90;;;;;;5015371;28;19941;-87
2021/07/15 10:28:43;;;;;;;;;;;20.40;99.90;;;;;;4997663;28;20319;-87
2021/07/15 10:31:09;;;;;;;;;;;20.30;99.90;;;;;;4997707;28;19909;-87
2021/07/15 10:33:35;;;;;;;;;;;20.30;99.90;;;;;;4997923;28;20335;-88
2021/07/15 10:36:02;;;;;;;;;;;20.30;99.90;;;;;;4997815;28;19913;-88
2021/07/15 10:38:28;;;;;;;;;;;20.30;99.90;;;;;;4997807;28;19909;-88
2021/07/15 10:40:55;;;;;;;;;;;20.10;99.90;;;;;;5015241;28;19952;-86
2021/07/15 10:43:20;;;;;;;;;;;20.00;99.90;;;;;;4997485;28;19914;-87
2021/07/15 10:45:47;;;;;;;;;;;19.80;99.90;;;;;;5015248;28;20365;-88
2021/07/15 10:48:14;;;;;;;;;;;19.70;99.90;;;;;;4997324;28;19955;-87
2021/07/15 10:50:40;;;;;;;;;;;19.70;99.90;;;;;;4997451;28;19916;-86
2021/07/15 10:53:06;;;;;;;;;;;19.60;99.90;;;;;;4997742;28;20399;-87
2021/07/15 10:55:32;;;;;;;;;;;19.80;99.90;;;;;;4997294;28;19917;-86
2021/07/15 10:57:58;;;;;;;;;;;20.00;99.90;;;;;;5013711;28;19910;-88
2021/07/15 11:00:24;;;;;;;;;;;20.10;99.90;;;;;;5014359;28;20411;-87
2021/07/15 11:03:09;;;;;;;;;;;20.40;99.90;;;;;;5014510;28;19932;-87
2021/07/15 11:05:44;;;;;;;;;;;20.70;99.90;;;;;;4997018;28;19979;-87
2021/07/15 11:08:10;;;;;;;;;;;21.10;99.90;;;;;;5013839;28;20368;-87
2021/07/15 11:10:35;;;;;;;;;;;21.20;99.90;;;;;;5012876;28;19910;-88
2021/07/15 11:13:05;;;;;;;;;;;21.30;99.90;;;;;;5012800;28;19932;-87
2021/07/15 11:15:54;;;;;;;;;;;21.20;99.90;;;;;;5012591;28;19920;-85
2021/07/15 11:18:34;;;;;;;;;;;21.00;99.90;;;;;;5012492;28;20408;-87
2021/07/15 11:21:19;;;;;;;;;;;20.90;99.90;;;;;;4995152;28;19957;-87
2021/07/15 11:23:44;;;;;;;;;;;21.10;99.90;;;;;;4996063;28;20349;-87
2021/07/15 11:26:26;;;;;;;;;;;21.50;99.90;;;;;;4995578;28;19957;-87
2021/07/15 11:28:51;;;;;;;;;;;21.80;99.90;;;;;;4993553;28;19921;-86
2021/07/15 11:31:37;;;;;;;;;;;21.80;99.90;;;;;;4996059;28;19910;-88
2021/07/15 11:34:02;;;;;;;;;;;22.10;99.90;;;;;;4996230;28;20349;-86
2021/07/15 11:36:30;;;;;;;;;;;22.40;99.90;;;;;;4996112;28;19956;-87
2021/07/15 11:39:00;;;;;;;;;;;22.50;99.90;;;;;;4996495;28;20328;-87
2021/07/15 11:41:42;;;;;;;;;;;22.70;99.90;;;;;;4996611;28;20399;-86
2021/07/15 11:44:07;;;;;;;;;;;22.90;99.90;;;;;;5014644;28;19935;-86
2021/07/15 11:46:35;;;;;;;;;;;23.30;99.90;;;;;;4999248;28;19910;-87
2021/07/15 11:49:08;;;;;;;;;;;23.60;99.90;;;;;;5001551;28;19987;-86
2021/07/15 11:51:37;;;;;;;;;;;23.70;99.90;;;;;;5002625;28;19933;-88
2021/07/15 11:54:21;;;;;;;;;;;23.60;99.90;;;;;;4996806;28;19909;-88
2021/07/15 11:56:48;;;;;;;;;;;23.10;99.90;;;;;;4995991;28;19968;-88
2021/07/15 11:59:33;;;;;;;;;;;22.50;99.90;;;;;;4995466;28;19936;-87
2021/07/15 12:02:18;;;;;;;;;;;22.00;99.90;;;;;;5013330;28;19910;-87
2021/07/15 12:05:04;;;;;;;;;;;21.50;99.90;;;;;;4995940;28;19909;-88
2021/07/15 12:07:30;;;;;;;;;;;21.40;99.90;;;;;;4995463;28;19959;-88
2021/07/15 12:09:56;;;;;;;;;;;21.10;99.90;;;;;;5013605;28;19937;-88
2021/07/15 12:12:23;;;;;;;;;;;21.00;99.90;;;;;;4996100;28;19910;-88
2021/07/15 12:14:52;;;;;;;;;;;20.80;99.90;;;;;;4995832;28;19971;-87
2021/07/15 12:17:18;;;;;;;;;;;20.70;99.90;;;;;;5013130;28;20261;-86
2021/07/15 12:19:57;;;;;;;;;;;20.80;99.90;;;;;;4995794;28;20414;-87
2021/07/15 12:22:23;;;;;;;;;;;20.70;99.90;;;;;;4995725;28;19917;-88
2021/07/15 12:24:52;;;;;;;;;;;20.60;99.90;;;;;;5013432;28;19909;-87
2021/07/15 12:27:21;;;;;;;;;;;20.30;99.90;;;;;;4995046;28;19909;-87
2021/07/15 12:29:53;;;;;;;;;;;19.90;99.90;;;;;;5013123;28;19913;-87
2021/07/15 12:32:19;;;;;;;;;;;19.70;99.90;;;;;;4995733;28;19917;-88
2021/07/15 12:34:44;;;;;;;;;;;19.40;99.90;;;;;;5013472;28;20316;-88
2021/07/15 12:37:12;;;;;;;;;;;19.30;99.90;;;;;;4995524;28;20019;-87
2021/07/15 12:39:38;;;;;;;;;;;19.30;99.90;;;;;;4995409;28;19916;-86
2021/07/15 12:42:03;;;;;;;;;;;19.30;99.90;;;;;;4995618;28;19909;-87
2021/07/15 12:44:29;;;;;;;;;;;19.30;99.90;;;;;;5013038;28;19932;-89
2021/07/15 12:46:55;;;;;;;;;;;19.30;99.90;;;;;;4995676;28;20301;-88
2021/07/15 12:49:26;;;;;;;;;;;19.30;99.90;;;;;;4995376;28;20332;-86
2021/07/15 12:51:52;;;;;;;;;;;19.30;99.90;;;;;;5013023;28;19910;-88
2021/07/15 12:54:55;;;;;;;;;;;19.30;99.90;;;;;;5013013;28;20426;-87
2021/07/15 12:57:14;;;;;;;;;;;19.40;99.90;;;;;;5008751;28;19929;-86
2021/07/15 12:59:40;;;;;;;;;;;19.50;99.90;;;;;;5012241;28;19913;-87
2021/07/15 13:02:05;;;;;;;;;;;19.60;99.90;;;;;;4995295;28;19916;-88
2021/07/15 13:04:35;;;;;;;;;;;19.80;99.90;;;;;;4995734;28;19910;-88
2021/07/15 13:07:07;;;;;;;;;;;19.90;99.90;;;;;;4995281;28;19920;-89
2021/07/15 13:15:00;;;;;;;;;;;20.90;99.90;;;;;;5013368;28;19941;-87
2021/07/15 13:17:36;;;;;;;;;;;21.10;99.90;;;;;;4995042;28;20372;-87
2021/07/15 13:20:28;;;;;;;;;;;21.10;99.90;;;;;;4995244;28;19910;-87
2021/07/15 13:22:58;;;;;;;;;;;21.10;99.90;;;;;;4990632;28;19917;-87
2021/07/15 13:25:25;;;;;;;;;;;21.30;99.90;;;;;;4994572;28;19917;-87
2021/07/15 13:27:51;;;;;;;;;;;21.40;99.90;;;;;;4994725;28;19914;-87
2021/07/15 13:30:18;;;;;;;;;;;21.70;99.90;;;;;;4995511;28;19916;-88
2021/07/15 13:32:44;;;;;;;;;;;22.10;99.90;;;;;;4995651;28;19917;-88
2021/07/15 13:35:13;;;;;;;;;;;22.30;99.90;;;;;;5012833;28;20379;-88
2021/07/15 13:37:39;;;;;;;;;;;22.50;99.90;;;;;;4996116;28;19956;-88
2021/07/15 13:40:34;;;;;;;;;;;22.50;99.90;;;;;;4995726;28;19914;-88
2021/07/15 13:43:03;;;;;;;;;;;22.30;99.90;;;;;;4991514;28;19916;-87
2021/07/15 13:45:29;;;;;;;;;;;22.20;99.90;;;;;;4994897;28;19978;-86
2021/07/15 13:47:55;;;;;;;;;;;22.00;99.90;;;;;;4994604;28;20364;-87
2021/07/15 13:50:20;;;;;;;;;;;21.60;99.90;;;;;;4995091;28;19921;-87
2021/07/15 13:52:46;;;;;;;;;;;21.10;99.90;;;;;;5015795;28;19917;-87
2021/07/15 13:55:15;;;;;;;;;;;20.90;99.90;;;;;;4998416;28;20396;-86
2021/07/15 13:57:46;;;;;;;;;;;20.80;99.90;;;;;;4998443;28;19959;-86
2021/07/15 14:00:13;;;;;;;;;;;20.90;99.90;;;;;;4997002;28;19914;-89
2021/07/15 14:02:40;;;;;;;;;;;20.90;99.90;;;;;;5015918;28;19910;-87
2021/07/15 14:05:05;;;;;;;;;;;21.00;99.90;;;;;;4978745;28;20439;-88
2021/07/15 14:07:32;;;;;;;;;;;21.20;99.90;;;;;;4979022;28;19945;-88
2021/07/15 14:10:05;;;;;;;;;;;21.20;99.90;;;;;;4978757;28;19920;-88
2021/07/15 14:12:30;;;;;;;;;;;21.20;99.90;;;;;;4979190;28;19910;-87
2021/07/15 14:14:56;;;;;;;;;;;21.30;99.90;;;;;;4978895;28;20395;-88
2021/07/15 14:17:23;;;;;;;;;;;21.30;99.90;;;;;;4996040;28;19909;-88
2021/07/15 14:19:51;;;;;;;;;;;21.40;99.90;;;;;;4978503;28;19914;-87
2021/07/15 14:22:17;;;;;;;;;;;21.60;99.90;;;;;;4978716;28;19910;-88
2021/07/15 14:24:43;;;;;;;;;;;21.50;99.90;;;;;;4995887;28;19961;-88
2021/07/15 14:27:12;;;;;;;;;;;21.30;99.90;;;;;;4994750;28;19916;-88
2021/07/15 14:29:38;;;;;;;;;;;21.20;99.90;;;;;;4997705;28;19964;-88